createdAt,value
2023-04-22T00:00:14.295Z,98790.23
2023-04-22T00:02:41.532Z,98790.70
2023-04-22T00:05:12.877Z,98787.05
2023-04-22T00:07:42.454Z,98788.21
2023-04-22T00:10:12.099Z,98787.10
2023-04-22T00:12:39.509Z,98786.57
2023-04-22T00:15:07.294Z,98783.42
2023-04-22T00:17:34.537Z,98785.02
2023-04-22T00:20:01.540Z,98783.95
2023-04-22T00:22:28.456Z,98780.91
2023-04-22T00:24:55.581Z,98780.48
2023-04-22T00:27:22.611Z,98782.80
2023-04-22T00:29:49.379Z,98786.89
2023-04-22T00:32:16.124Z,98783.73
2023-04-22T00:34:42.837Z,98789.55
2023-04-22T00:37:09.720Z,98787.80
2023-04-22T00:39:39.181Z,98790.09
2023-04-22T00:42:07.269Z,98790.42
2023-04-22T00:44:35.458Z,98791.36
2023-04-22T00:47:02.297Z,98792.36
2023-04-22T00:49:29.122Z,98793.77
2023-04-22T00:51:56.032Z,98801.51
2023-04-22T00:54:22.809Z,98800.64
2023-04-22T00:56:49.596Z,98798.54
2023-04-22T00:59:16.556Z,98800.45
2023-04-22T01:01:43.542Z,98798.30
2023-04-22T01:04:12.150Z,98797.55
2023-04-22T01:06:40.580Z,98798.80
2023-04-22T01:09:07.484Z,98800.99
2023-04-22T01:11:35.602Z,98798.00
2023-04-22T01:14:02.704Z,98802.61
2023-04-22T01:16:30.759Z,98801.14
2023-04-22T01:18:57.525Z,98796.98
2023-04-22T01:21:24.717Z,98800.23
2023-04-22T01:23:51.621Z,98802.36
2023-04-22T01:26:18.354Z,98799.19
2023-04-22T01:28:45.198Z,98800.22
2023-04-22T01:31:12.113Z,98802.38
2023-04-22T01:33:38.990Z,98798.23
2023-04-22T01:36:06.038Z,98800.17
2023-04-22T01:38:33.863Z,98801.88
2023-04-22T01:41:02.033Z,98800.02
2023-04-22T01:43:30.313Z,98799.30
2023-04-22T01:45:57.305Z,98796.86
2023-04-22T01:48:24.118Z,98800.33
2023-04-22T01:50:50.905Z,98799.11
2023-04-22T01:53:17.629Z,98796.34
2023-04-22T01:55:44.800Z,98798.83
2023-04-22T01:58:13.158Z,98800.35
2023-04-22T02:00:40.883Z,98804.61
2023-04-22T02:03:07.799Z,98802.73
2023-04-22T02:05:38.984Z,98801.94
2023-04-22T02:08:06.035Z,98805.92
2023-04-22T02:10:32.772Z,98808.27
2023-04-22T02:13:00.169Z,98809.44
2023-04-22T02:15:26.897Z,98809.08
2023-04-22T02:17:54.258Z,98809.48
2023-04-22T02:20:21.066Z,98807.36
2023-04-22T02:22:47.927Z,98809.19
2023-04-22T02:25:14.697Z,98808.32
2023-04-22T02:27:42.422Z,98808.71
2023-04-22T02:30:09.587Z,98809.42
2023-04-22T02:32:38.347Z,98810.80
2023-04-22T02:35:05.880Z,98808.73
2023-04-22T02:37:33.432Z,98808.59
2023-04-22T02:40:00.213Z,98806.23
2023-04-22T02:42:27.164Z,98806.20
2023-04-22T02:44:55.267Z,98804.42
2023-04-22T02:47:23.428Z,98805.68
2023-04-22T02:49:50.232Z,98803.89
2023-04-22T02:52:17.533Z,98803.64
2023-04-22T02:54:44.283Z,98807.33
2023-04-22T02:57:11.052Z,98804.98
2023-04-22T02:59:38.108Z,98802.99
2023-04-22T03:02:06.842Z,98804.91
2023-04-22T03:05:03.546Z,98804.77
2023-04-22T03:07:30.660Z,98809.29
2023-04-22T03:09:57.705Z,98813.98
2023-04-22T03:12:24.567Z,98819.58
2023-04-22T03:14:52.186Z,98823.20
2023-04-22T03:17:20.053Z,98826.63
2023-04-22T03:19:47.462Z,98827.64
2023-04-22T03:22:14.357Z,98828.98
2023-04-22T03:24:41.198Z,98830.06
2023-04-22T03:27:11.834Z,98833.69
2023-04-22T03:29:39.729Z,98836.73
2023-04-22T03:32:06.892Z,98840.86
2023-04-22T03:34:37.066Z,98843.99
2023-04-22T03:37:05.449Z,98842.72
2023-04-22T03:39:52.448Z,98841.82
2023-04-22T03:42:19.328Z,98846.64
2023-04-22T03:44:46.170Z,98851.64
2023-04-22T03:47:14.156Z,98857.63
2023-04-22T03:49:45.872Z,98856.59
2023-04-22T03:52:12.965Z,98857.29
2023-04-22T03:54:43.538Z,98860.84
2023-04-22T03:57:10.433Z,98865.92
2023-04-22T03:59:38.815Z,98869.23
2023-04-22T04:02:07.128Z,98876.71
2023-04-22T04:04:34.458Z,98875.14
2023-04-22T04:07:01.641Z,98879.77
2023-04-22T04:09:28.603Z,98884.48
2023-04-22T04:11:56.254Z,98885.18
2023-04-22T04:14:23.073Z,98889.37
2023-04-22T04:16:52.040Z,98891.39
2023-04-22T04:19:30.167Z,98896.40
2023-04-22T04:21:57.048Z,98899.02
2023-04-22T04:24:25.319Z,98901.50
2023-04-22T04:26:57.455Z,98901.06
2023-04-22T04:29:29.238Z,98905.48
2023-04-22T04:32:04.190Z,98907.61
2023-04-22T04:34:33.880Z,98911.24
2023-04-22T04:37:02.256Z,98912.83
2023-04-22T04:39:35.818Z,98916.98
2023-04-22T04:42:03.431Z,98915.60
2023-04-22T04:44:32.051Z,98918.60
2023-04-22T04:46:59.458Z,98920.65
2023-04-22T04:49:30.070Z,98919.73
2023-04-22T04:51:58.335Z,98921.82
2023-04-22T04:54:26.047Z,98922.58
2023-04-22T04:56:52.806Z,98929.13
2023-04-22T04:59:19.656Z,98932.27
2023-04-22T05:01:47.822Z,98933.00
2023-04-22T05:04:14.989Z,98929.20
2023-04-22T05:06:43.036Z,98930.90
2023-04-22T05:09:10.027Z,98931.52
2023-04-22T05:11:36.814Z,98931.87
2023-04-22T05:14:09.187Z,98935.03
2023-04-22T05:16:39.166Z,98937.08
2023-04-22T05:19:07.949Z,98940.83
2023-04-22T05:21:35.484Z,98947.62
2023-04-22T05:24:02.266Z,98946.37
2023-04-22T05:26:29.278Z,98949.97
2023-04-22T05:28:56.292Z,98949.34
2023-04-22T05:31:23.170Z,98947.82
2023-04-22T05:33:50.406Z,98943.61
2023-04-22T05:36:17.412Z,98949.13
2023-04-22T05:38:45.555Z,98950.71
2023-04-22T05:41:12.390Z,98957.58
2023-04-22T05:43:39.298Z,98958.84
2023-04-22T05:46:09.505Z,98965.10
2023-04-22T05:48:37.981Z,98962.79
2023-04-22T05:51:07.891Z,98963.46
2023-04-22T05:53:35.544Z,98962.00
2023-04-22T05:56:02.627Z,98964.31
2023-04-22T05:58:30.172Z,98967.23
2023-04-22T06:01:01.560Z,98969.48
2023-04-22T06:04:05.681Z,98971.52
2023-04-22T06:06:33.547Z,98973.80
2023-04-22T06:09:00.359Z,98976.69
2023-04-22T06:11:27.817Z,98977.73
2023-04-22T06:13:54.713Z,98978.96
2023-04-22T06:16:21.817Z,98983.11
2023-04-22T06:18:48.593Z,98985.38
2023-04-22T06:21:15.482Z,98988.04
2023-04-22T06:23:42.316Z,98991.23
2023-04-22T06:26:09.114Z,98987.42
2023-04-22T06:28:36.494Z,98987.20
2023-04-22T06:31:07.095Z,98984.13
2023-04-22T06:33:33.928Z,98982.38
2023-04-22T06:36:04.428Z,98990.08
2023-04-22T06:38:31.379Z,98989.52
2023-04-22T06:41:27.396Z,98996.11
2023-04-22T06:43:58.025Z,99000.38
2023-04-22T06:46:50.152Z,98999.63
2023-04-22T06:49:37.990Z,99007.08
2023-04-22T06:52:19.514Z,99007.34
2023-04-22T06:54:46.720Z,99004.48
2023-04-22T06:57:13.752Z,99007.92
2023-04-22T06:59:40.874Z,99010.79
2023-04-22T07:02:08.133Z,99011.16
2023-04-22T07:04:36.964Z,99010.56
2023-04-22T07:07:04.677Z,99014.67
2023-04-22T07:09:33.242Z,99012.92
2023-04-22T07:12:00.677Z,99008.56
2023-04-22T07:14:31.750Z,99004.63
2023-04-22T07:16:59.396Z,99002.81
2023-04-22T07:19:26.448Z,99009.34
2023-04-22T07:21:53.583Z,99008.21
2023-04-22T07:24:20.374Z,99008.65
2023-04-22T07:26:47.081Z,99012.87
2023-04-22T07:29:13.810Z,99007.55
2023-04-22T07:31:40.617Z,99013.85
2023-04-22T07:34:08.621Z,99010.31
2023-04-22T07:36:35.413Z,99011.98
2023-04-22T07:39:02.105Z,99011.94
2023-04-22T07:41:28.994Z,99013.15
2023-04-22T07:43:56.003Z,99016.40
2023-04-22T07:46:23.188Z,99019.80
2023-04-22T07:48:50.232Z,99020.51
2023-04-22T07:51:16.959Z,99017.20
2023-04-22T07:53:44.157Z,99019.58
2023-04-22T07:56:10.928Z,99021.00
2023-04-22T07:58:37.816Z,99019.98
2023-04-22T08:01:04.704Z,99013.64
2023-04-22T08:03:32.202Z,99024.84
2023-04-22T08:05:59.466Z,99020.45
2023-04-22T08:08:26.236Z,99027.39
2023-04-22T08:10:53.022Z,99022.73
2023-04-22T08:13:20.052Z,99021.69
2023-04-22T08:15:46.822Z,99025.59
2023-04-22T08:18:13.557Z,99018.59
2023-04-22T08:20:40.286Z,99025.52
2023-04-22T08:23:07.119Z,99022.41
2023-04-22T08:25:34.187Z,99022.14
2023-04-22T08:28:00.994Z,99029.39
2023-04-22T08:30:27.770Z,99028.52
2023-04-22T08:32:54.537Z,99026.77
2023-04-22T08:35:21.294Z,99027.89
2023-04-22T08:37:48.073Z,99031.77
2023-04-22T08:40:15.005Z,99028.43
2023-04-22T08:42:42.074Z,99030.23
2023-04-22T08:45:09.164Z,99032.95
2023-04-22T08:47:37.895Z,99031.27
2023-04-22T08:50:05.837Z,99033.53
2023-04-22T08:52:33.146Z,99028.83
2023-04-22T08:55:00.255Z,99036.79
2023-04-22T08:57:27.145Z,99034.03
2023-04-22T08:59:55.694Z,99032.95
2023-04-22T09:02:23.609Z,99038.55
2023-04-22T09:04:51.364Z,99042.95
2023-04-22T09:07:25.233Z,99033.98
2023-04-22T09:09:53.295Z,99039.44
2023-04-22T09:12:20.063Z,99037.71
2023-04-22T09:14:46.953Z,99037.48
2023-04-22T09:17:18.008Z,99046.58
2023-04-22T09:19:45.233Z,99041.23
2023-04-22T09:22:14.230Z,99038.93
2023-04-22T09:24:43.944Z,99041.11
2023-04-22T09:27:10.735Z,99033.41
2023-04-22T09:29:37.831Z,99036.91
2023-04-22T09:32:11.289Z,99040.63
2023-04-22T09:34:51.733Z,99036.41
2023-04-22T09:37:36.054Z,99030.81
2023-04-22T09:40:08.524Z,99030.42
2023-04-22T09:42:35.335Z,99028.48
2023-04-22T09:45:02.375Z,99028.06
2023-04-22T09:47:35.548Z,99029.02
2023-04-22T09:50:03.810Z,99027.98
2023-04-22T09:52:31.457Z,99030.23
2023-04-22T09:54:58.232Z,99031.27
2023-04-22T09:57:25.029Z,99029.01
2023-04-22T09:59:52.457Z,99029.73
2023-04-22T10:02:19.407Z,99035.41
2023-04-22T10:04:47.376Z,99030.67
2023-04-22T10:07:14.729Z,99033.52
2023-04-22T10:09:41.718Z,99030.17
2023-04-22T10:12:09.285Z,99028.67
2023-04-22T10:14:36.499Z,99030.60
2023-04-22T10:17:04.352Z,99033.27
2023-04-22T10:19:33.458Z,99027.95
2023-04-22T10:22:02.130Z,99030.79
2023-04-22T10:24:29.839Z,99028.90
2023-04-22T10:26:57.589Z,99027.15
2023-04-22T10:29:25.794Z,99027.93
2023-04-22T10:32:03.652Z,99026.69
2023-04-22T10:34:34.477Z,99030.02
2023-04-22T10:37:06.257Z,99032.60
2023-04-22T10:39:33.295Z,99031.23
2023-04-22T10:42:05.040Z,99028.90
2023-04-22T10:44:51.261Z,99025.70
2023-04-22T10:47:34.733Z,99024.52
2023-04-22T10:50:11.753Z,99030.60
2023-04-22T10:52:39.425Z,99022.41
2023-04-22T10:55:06.338Z,99026.17
2023-04-22T10:57:57.763Z,99031.39
2023-04-22T11:00:35.366Z,99031.75
2023-04-22T11:03:05.702Z,99030.33
2023-04-22T11:05:33.630Z,99029.08
2023-04-22T11:08:20.089Z,99035.11
2023-04-22T11:10:50.664Z,99035.42
2023-04-22T11:13:18.950Z,99032.07
2023-04-22T11:15:50.405Z,99035.55
2023-04-22T11:18:22.752Z,99034.95
2023-04-22T11:20:50.130Z,99038.45
2023-04-22T11:23:26.039Z,99033.66
2023-04-22T11:26:00.336Z,99038.96
2023-04-22T11:28:27.572Z,99035.92
2023-04-22T11:31:09.290Z,99041.19
2023-04-22T11:33:37.833Z,99046.13
2023-04-22T11:36:05.207Z,99043.43
2023-04-22T11:38:32.737Z,99040.13
2023-04-22T11:40:59.591Z,99041.92
2023-04-22T11:43:30.439Z,99044.23
2023-04-22T11:45:57.618Z,99046.65
2023-04-22T11:48:24.616Z,99044.15
2023-04-22T11:51:11.183Z,99045.95
2023-04-22T11:53:39.579Z,99048.45
2023-04-22T11:56:07.191Z,99045.81
2023-04-22T11:58:37.141Z,99045.57
2023-04-22T12:01:03.957Z,99048.13
2023-04-22T12:03:33.491Z,99048.39
2023-04-22T12:06:02.489Z,99049.48
2023-04-22T12:08:35.004Z,99051.31
2023-04-22T12:11:03.555Z,99045.04
2023-04-22T12:13:32.648Z,99043.02
2023-04-22T12:16:19.967Z,99046.38
2023-04-22T12:18:47.010Z,99045.55
2023-04-22T12:21:14.740Z,99043.27
2023-04-22T12:23:42.828Z,99037.73
2023-04-22T12:26:09.866Z,99040.98
2023-04-22T12:28:37.105Z,99042.80
2023-04-22T12:31:04.296Z,99042.92
2023-04-22T12:33:31.601Z,99038.89
2023-04-22T12:35:58.747Z,99039.64
2023-04-22T12:38:26.323Z,99038.08
2023-04-22T12:40:54.204Z,99041.17
2023-04-22T12:43:21.175Z,99039.10
2023-04-22T12:45:48.054Z,99040.78
2023-04-22T12:48:16.751Z,99039.95
2023-04-22T12:50:43.655Z,99042.35
2023-04-22T12:53:10.372Z,99041.67
2023-04-22T12:55:37.282Z,99045.94
2023-04-22T12:58:04.758Z,99044.41
2023-04-22T13:00:31.825Z,99042.38
2023-04-22T13:02:58.778Z,99046.77
2023-04-22T13:05:25.719Z,99040.35
2023-04-22T13:10:27.532Z,99040.69
2023-04-22T13:12:58.466Z,99037.19
2023-04-22T13:15:31.756Z,99043.81
2023-04-22T13:17:59.118Z,99044.11
2023-04-22T13:20:25.928Z,99045.52
2023-04-22T13:22:53.560Z,99039.02
2023-04-22T13:25:20.553Z,99045.31
2023-04-22T13:27:47.530Z,99043.38
2023-04-22T13:30:14.493Z,99047.54
2023-04-22T13:32:41.836Z,99047.05
2023-04-22T13:35:09.062Z,99050.16
2023-04-22T13:37:36.252Z,99055.05
2023-04-22T13:40:05.591Z,99057.42
2023-04-22T13:42:32.702Z,99058.64
2023-04-22T13:45:01.052Z,99059.92
2023-04-22T13:47:28.282Z,99062.05
2023-04-22T13:49:55.055Z,99062.17
2023-04-22T13:52:21.820Z,99062.66
2023-04-22T13:54:48.671Z,99064.02
2023-04-22T13:57:15.401Z,99058.17
2023-04-22T13:59:42.404Z,99057.31
2023-04-22T14:02:09.541Z,99053.65
2023-04-22T14:04:36.295Z,99052.70
2023-04-22T14:07:03.449Z,99054.27
2023-04-22T14:09:30.988Z,99060.27
2023-04-22T14:11:58.077Z,99061.52
2023-04-22T14:14:25.269Z,99061.89
2023-04-22T14:16:52.247Z,99064.02
2023-04-22T14:19:19.379Z,99066.04
2023-04-22T14:21:46.586Z,99067.77
2023-04-22T14:24:13.528Z,99064.88
2023-04-22T14:26:40.639Z,99075.08
2023-04-22T14:29:08.238Z,99076.88
2023-04-22T14:31:35.056Z,99075.98
2023-04-22T14:34:01.788Z,99076.09
2023-04-22T14:36:29.420Z,99081.59
2023-04-22T14:38:56.244Z,99080.73
2023-04-22T14:41:23.327Z,99078.59
2023-04-22T14:43:50.319Z,99080.08
2023-04-22T14:46:17.074Z,99077.05
2023-04-22T14:48:44.219Z,99074.67
2023-04-22T14:51:11.070Z,99075.90
2023-04-22T14:53:37.905Z,99080.21
2023-04-22T14:56:04.874Z,99079.58
2023-04-22T14:58:31.991Z,99077.55
2023-04-22T15:00:59.364Z,99082.96
2023-04-22T15:03:26.735Z,99077.63
2023-04-22T15:05:54.636Z,99074.48
2023-04-22T15:08:24.595Z,99070.29
2023-04-22T15:10:51.648Z,99075.29
2023-04-22T15:13:21.267Z,99080.16
2023-04-22T15:15:48.028Z,99082.21
2023-04-22T15:18:14.838Z,99080.38
2023-04-22T15:20:41.723Z,99083.14
2023-04-22T15:23:08.525Z,99085.30
2023-04-22T15:25:35.604Z,99090.73
2023-04-22T15:28:02.840Z,99087.97
2023-04-22T15:30:29.966Z,99086.77
2023-04-22T15:32:56.912Z,99082.45
2023-04-22T15:35:24.097Z,99080.97
2023-04-22T15:37:52.138Z,99084.66
2023-04-22T15:40:19.243Z,99079.31
2023-04-22T15:42:46.029Z,99081.73
2023-04-22T15:45:12.894Z,99083.39
2023-04-22T15:47:40.519Z,99083.16
2023-04-22T15:50:08.309Z,99089.03
2023-04-22T15:52:36.757Z,99087.52
2023-04-22T15:55:07.213Z,99087.35
2023-04-22T15:57:34.505Z,99088.72
2023-04-22T16:00:10.858Z,99088.70
2023-04-22T16:02:42.976Z,99084.87
2023-04-22T16:05:11.075Z,99087.69
2023-04-22T16:07:39.628Z,99090.31
2023-04-22T16:10:07.409Z,99089.21
2023-04-22T16:12:34.611Z,99093.23
2023-04-22T16:15:01.629Z,99094.96
2023-04-22T16:17:29.253Z,99095.39
2023-04-22T16:19:56.036Z,99098.88
2023-04-22T16:22:22.819Z,99097.35
2023-04-22T16:24:50.026Z,99102.80
2023-04-22T16:27:18.568Z,99100.81
2023-04-22T16:29:45.544Z,99101.48
2023-04-22T16:32:12.337Z,99102.70
2023-04-22T16:34:39.166Z,99100.71
2023-04-22T16:37:06.338Z,99099.98
2023-04-22T16:39:33.425Z,99095.83
2023-04-22T16:42:01.769Z,99101.50
2023-04-22T16:44:28.762Z,99101.94
2023-04-22T16:46:55.555Z,99108.48
2023-04-22T16:49:22.318Z,99102.72
2023-04-22T16:51:49.299Z,99101.52
2023-04-22T16:54:16.148Z,99100.83
2023-04-22T16:56:43.142Z,99099.04
2023-04-22T16:59:09.897Z,99100.96
2023-04-22T17:01:36.843Z,99099.08
2023-04-22T17:04:03.717Z,99106.64
2023-04-22T17:06:31.954Z,99101.11
2023-04-22T17:08:59.388Z,99101.63
2023-04-22T17:11:26.133Z,99103.63
2023-04-22T17:13:53.084Z,99105.17
2023-04-22T17:16:20.320Z,99104.14
2023-04-22T17:18:47.331Z,99109.42
2023-04-22T17:21:15.858Z,99109.49
2023-04-22T17:23:42.623Z,99115.98
2023-04-22T17:26:09.372Z,99114.60
2023-04-22T17:28:36.088Z,99115.95
2023-04-22T17:31:03.576Z,99117.05
2023-04-22T17:33:30.774Z,99118.31
2023-04-22T17:35:57.546Z,99122.13
2023-04-22T17:38:24.376Z,99120.70
2023-04-22T17:40:51.107Z,99125.05
2023-04-22T17:43:18.543Z,99125.93
2023-04-22T17:45:45.382Z,99126.70
2023-04-22T17:48:12.572Z,99128.17
2023-04-22T17:50:39.344Z,99132.05
2023-04-22T17:53:06.255Z,99137.29
2023-04-22T17:55:34.640Z,99140.69
2023-04-22T17:58:02.479Z,99140.14
2023-04-22T18:00:29.912Z,99145.77
2023-04-22T18:02:56.910Z,99148.39
2023-04-22T18:05:23.991Z,99149.86
2023-04-22T18:07:50.936Z,99148.10
2023-04-22T18:10:17.846Z,99155.70
2023-04-22T18:12:46.453Z,99156.14
2023-04-22T18:15:13.180Z,99159.14
2023-04-22T18:17:41.394Z,99163.65
2023-04-22T18:20:17.160Z,99162.80
2023-04-22T18:22:49.101Z,99162.11
2023-04-22T18:25:15.808Z,99161.34
2023-04-22T18:27:42.944Z,99160.48
2023-04-22T18:30:10.054Z,99160.84
2023-04-22T18:32:37.503Z,99162.98
2023-04-22T18:35:04.765Z,99165.79
2023-04-22T18:37:33.758Z,99169.21
2023-04-22T18:40:00.661Z,99162.88
2023-04-22T18:42:27.463Z,99168.67
2023-04-22T18:44:54.252Z,99168.73
2023-04-22T18:47:21.198Z,99172.39
2023-04-22T18:49:47.935Z,99170.87
2023-04-22T18:52:16.533Z,99174.55
2023-04-22T18:54:43.416Z,99175.22
2023-04-22T18:57:11.580Z,99179.99
2023-04-22T18:59:39.127Z,99175.99
2023-04-22T19:02:06.046Z,99177.63
2023-04-22T19:04:33.297Z,99179.59
2023-04-22T19:07:00.348Z,99180.48
2023-04-22T19:09:27.083Z,99179.37
2023-04-22T19:11:53.985Z,99182.43
2023-04-22T19:14:21.512Z,99181.50
2023-04-22T19:16:48.248Z,99186.33
2023-04-22T19:19:15.251Z,99182.59
2023-04-22T19:21:42.111Z,99181.30
2023-04-22T19:24:09.473Z,99185.64
2023-04-22T19:26:36.239Z,99184.38
2023-04-22T19:29:02.967Z,99184.38
2023-04-22T19:31:30.214Z,99184.81
2023-04-22T19:33:57.391Z,99188.12
2023-04-22T19:36:24.137Z,99190.30
2023-04-22T19:38:51.075Z,99191.23
2023-04-22T19:41:18.039Z,99192.57
2023-04-22T19:43:45.470Z,99192.19
2023-04-22T19:46:12.216Z,99193.17
2023-04-22T19:48:39.298Z,99193.10
2023-04-22T19:51:06.244Z,99197.12
2023-04-22T19:53:33.133Z,99198.17
2023-04-22T19:55:59.919Z,99198.05
2023-04-22T19:58:27.845Z,99199.94
2023-04-22T20:00:55.022Z,99199.51
2023-04-22T20:03:22.181Z,99204.94
2023-04-22T20:05:49.686Z,99202.91
2023-04-22T20:08:19.446Z,99200.94
2023-04-22T20:10:48.634Z,99200.84
2023-04-22T20:13:16.535Z,99203.92
2023-04-22T20:15:43.927Z,99207.51
2023-04-22T20:18:10.749Z,99207.34
2023-04-22T20:20:45.794Z,99209.69
2023-04-22T20:23:12.593Z,99206.81
2023-04-22T20:25:41.720Z,99207.09
2023-04-22T20:28:10.089Z,99209.08
2023-04-22T20:30:37.144Z,99207.81
2023-04-22T20:33:04.451Z,99216.53
2023-04-22T20:35:31.647Z,99212.86
2023-04-22T20:37:58.976Z,99211.93
2023-04-22T20:40:25.851Z,99214.04
2023-04-22T20:43:14.489Z,99214.01
2023-04-22T20:45:41.289Z,99213.23
2023-04-22T20:48:08.340Z,99213.80
2023-04-22T20:50:35.522Z,99213.58
2023-04-22T20:53:03.113Z,99215.17
2023-04-22T20:55:30.976Z,99215.63
2023-04-22T20:57:58.199Z,99219.02
2023-04-22T21:00:24.986Z,99217.40
2023-04-22T21:02:51.918Z,99214.80
2023-04-22T21:05:19.256Z,99212.63
2023-04-22T21:07:46.924Z,99214.63
2023-04-22T21:10:14.140Z,99212.59
2023-04-22T21:12:41.072Z,99210.05
2023-04-22T21:15:08.821Z,99213.50
2023-04-22T21:17:35.663Z,99209.71
2023-04-22T21:20:03.735Z,99208.92
2023-04-22T21:22:30.854Z,99211.00
2023-04-22T21:24:57.908Z,99209.30
2023-04-22T21:27:25.220Z,99211.96
2023-04-22T21:29:52.412Z,99212.59
2023-04-22T21:32:19.880Z,99214.55
2023-04-22T21:34:46.814Z,99217.81
2023-04-22T21:37:13.565Z,99216.98
2023-04-22T21:39:40.410Z,99214.02
2023-04-22T21:42:07.380Z,99216.45
2023-04-22T21:44:35.679Z,99214.56
2023-04-22T21:47:02.927Z,99216.17
2023-04-22T21:49:29.741Z,99218.52
2023-04-22T21:51:56.563Z,99221.99
2023-04-22T21:54:23.304Z,99223.17
2023-04-22T21:56:50.181Z,99224.11
2023-04-22T21:59:16.907Z,99224.31
2023-04-22T22:01:43.708Z,99224.63
2023-04-22T22:04:13.122Z,99224.23
2023-04-22T22:06:46.017Z,99228.05
2023-04-22T22:09:13.924Z,99225.38
2023-04-22T22:11:43.684Z,99226.52
2023-04-22T22:14:10.426Z,99224.82
2023-04-22T22:16:37.794Z,99222.63
2023-04-22T22:19:04.812Z,99222.58
2023-04-22T22:21:32.331Z,99219.80
2023-04-22T22:23:59.068Z,99216.39
2023-04-22T22:26:25.920Z,99216.20
2023-04-22T22:28:52.838Z,99216.61
2023-04-22T22:31:19.608Z,99214.50
2023-04-22T22:33:46.416Z,99210.40
2023-04-22T22:36:13.165Z,99217.05
2023-04-22T22:38:40.055Z,99217.23
2023-04-22T22:41:06.794Z,99212.52
2023-04-22T22:43:33.923Z,99215.77
2023-04-22T22:46:00.705Z,99213.30
2023-04-22T22:48:27.906Z,99211.66
2023-04-22T22:50:55.905Z,99215.45
2023-04-22T22:53:23.158Z,99213.52
2023-04-22T22:55:50.190Z,99214.56
2023-04-22T22:58:17.018Z,99218.16
2023-04-22T23:00:43.767Z,99214.05
2023-04-22T23:03:11.144Z,99217.55
2023-04-22T23:05:38.419Z,99216.95
2023-04-22T23:08:06.320Z,99216.39
2023-04-22T23:10:33.196Z,99218.48
2023-04-22T23:12:59.955Z,99219.69
2023-04-22T23:15:26.751Z,99217.90
2023-04-22T23:17:53.546Z,99220.19
2023-04-22T23:20:20.747Z,99220.32
2023-04-22T23:22:47.570Z,99221.80
2023-04-22T23:25:15.384Z,99219.43
2023-04-22T23:27:42.262Z,99218.56
2023-04-22T23:30:09.317Z,99220.89
2023-04-22T23:32:40.967Z,99221.52
2023-04-22T23:35:09.722Z,99222.56
2023-04-22T23:37:37.180Z,99226.21
2023-04-22T23:40:06.783Z,99226.73
2023-04-22T23:42:33.625Z,99224.27
2023-04-22T23:45:02.217Z,99225.73
2023-04-22T23:47:30.904Z,99228.05
2023-04-22T23:49:58.234Z,99224.44
2023-04-22T23:52:25.358Z,99227.81
2023-04-22T23:54:52.425Z,99227.37
2023-04-22T23:57:19.728Z,99229.79
2023-04-22T23:59:46.693Z,99227.61
